createdAt,value
2018-06-18T09:13:51.796Z,22.51
2018-06-18T09:14:51.752Z,22.62
2018-06-18T09:15:51.750Z,22.61
2018-06-18T09:16:51.724Z,22.83
2018-06-18T09:17:51.710Z,22.75
2018-06-18T09:18:51.698Z,22.80
2018-06-18T09:19:51.682Z,22.79
2018-06-18T09:20:51.714Z,23.02
2018-06-18T09:21:51.654Z,22.91
2018-06-18T09:22:51.643Z,22.92
2018-06-18T09:23:51.629Z,23.13
2018-06-18T09:24:51.617Z,22.91
2018-06-18T09:25:51.613Z,22.62
2018-06-18T09:26:51.591Z,22.30
2018-06-18T09:27:51.579Z,22.42
2018-06-18T09:28:51.568Z,22.49
2018-06-18T09:29:51.558Z,22.42
2018-06-18T09:30:51.557Z,22.30
2018-06-18T09:31:51.531Z,22.60
2018-06-18T09:32:51.517Z,22.73
2018-06-18T09:33:51.506Z,22.54
2018-06-18T09:34:51.495Z,22.80
2018-06-18T09:35:51.502Z,22.57
2018-06-18T09:36:51.471Z,22.65
2018-06-18T09:37:51.460Z,22.64
2018-06-18T09:38:51.453Z,22.60
2018-06-18T09:39:51.442Z,22.61
2018-06-18T09:40:51.428Z,22.67
2018-06-18T09:41:51.424Z,22.80
2018-06-18T09:42:51.403Z,22.76
2018-06-18T09:43:51.391Z,22.91
2018-06-18T09:44:51.380Z,22.88
2018-06-18T09:45:51.367Z,22.94
2018-06-18T09:46:51.368Z,22.83
2018-06-18T09:47:51.345Z,22.67
2018-06-18T09:48:51.335Z,22.68
2018-06-18T09:49:51.320Z,22.68
2018-06-18T09:50:51.310Z,22.73
2018-06-18T09:51:51.317Z,22.45
2018-06-18T09:52:51.290Z,22.43
2018-06-18T09:53:51.276Z,22.42
2018-06-18T09:54:51.272Z,22.43
2018-06-18T09:55:51.260Z,22.51
2018-06-18T09:56:51.256Z,22.58
2018-06-18T09:57:51.236Z,22.60
2018-06-18T09:58:51.222Z,22.73
2018-06-18T09:59:51.204Z,22.73
2018-06-18T10:00:51.204Z,23.05
2018-06-18T10:01:51.202Z,23.01
2018-06-18T10:02:51.178Z,23.20
2018-06-18T10:03:51.171Z,23.38
2018-06-18T10:04:51.153Z,23.39
2018-06-18T10:05:51.138Z,23.35
2018-06-18T10:06:51.143Z,23.25
2018-06-18T10:07:51.119Z,23.36
2018-06-18T10:08:51.273Z,23.69
2018-06-18T10:09:51.094Z,23.39
2018-06-18T10:10:51.080Z,23.87
2018-06-18T10:11:51.081Z,24.06
2018-06-18T10:12:51.062Z,24.05
2018-06-18T10:13:51.048Z,24.53
2018-06-18T10:14:51.048Z,24.62
2018-06-18T10:15:51.040Z,24.73
2018-06-18T10:16:51.029Z,25.10
2018-06-18T10:17:51.005Z,24.78
2018-06-18T10:18:50.996Z,24.35
2018-06-18T10:19:50.989Z,24.42
2018-06-18T10:20:50.976Z,23.70
2018-06-18T10:21:50.978Z,23.55
2018-06-18T10:22:50.952Z,23.78
2018-06-18T10:23:50.945Z,24.15
2018-06-18T10:24:50.936Z,24.34
2018-06-18T10:25:50.925Z,24.00
2018-06-18T10:26:50.922Z,23.97
2018-06-18T10:27:50.905Z,24.05
2018-06-18T10:28:50.897Z,23.31
2018-06-18T10:29:50.882Z,22.88
2018-06-18T10:30:50.871Z,22.97
2018-06-18T10:31:50.878Z,22.95
2018-06-18T10:32:50.847Z,23.07
2018-06-18T10:33:50.836Z,23.05
2018-06-18T10:34:50.827Z,23.12
2018-06-18T10:35:50.816Z,22.85
2018-06-18T10:36:50.823Z,22.52
2018-06-18T10:37:50.793Z,22.39
2018-06-18T10:38:50.784Z,22.20
2018-06-18T10:39:50.771Z,22.10
2018-06-18T10:40:50.762Z,22.22
2018-06-18T10:41:50.757Z,22.22
2018-06-18T10:42:50.752Z,22.28
2018-06-18T10:43:50.731Z,22.31
2018-06-18T10:44:50.716Z,22.42
2018-06-18T10:45:50.714Z,22.47
2018-06-18T10:46:50.695Z,22.46
2018-06-18T10:47:50.696Z,22.17
2018-06-18T10:48:50.672Z,22.17
2018-06-18T10:49:50.664Z,22.05
2018-06-18T10:50:50.654Z,22.12
2018-06-18T10:51:50.642Z,22.22
2018-06-18T10:52:50.641Z,22.20
2018-06-18T10:53:50.616Z,22.33
2018-06-18T10:54:50.610Z,22.20
2018-06-18T10:55:50.591Z,22.47
2018-06-18T10:56:50.584Z,22.35
2018-06-18T10:57:50.581Z,22.33
2018-06-18T10:58:50.559Z,22.24
2018-06-18T10:59:50.554Z,22.28
2018-06-18T11:00:50.539Z,22.42
2018-06-18T11:01:50.530Z,22.46
2018-06-18T11:02:50.526Z,22.73
2018-06-18T11:03:50.569Z,22.90
2018-06-18T11:04:50.489Z,23.13
2018-06-18T11:05:50.479Z,23.57
2018-06-18T11:06:50.467Z,23.72
2018-06-18T11:07:50.469Z,23.87
2018-06-18T11:08:50.443Z,24.05
2018-06-18T11:09:50.438Z,24.37
2018-06-18T11:10:50.421Z,24.77
2018-06-18T11:11:50.409Z,25.32
2018-06-18T11:12:50.410Z,26.01
2018-06-18T11:13:50.388Z,25.33
2018-06-18T11:14:50.377Z,25.14
2018-06-18T11:15:50.377Z,25.38
2018-06-18T11:16:50.594Z,25.60
2018-06-18T11:17:50.351Z,25.39
2018-06-18T11:18:50.333Z,25.69
2018-06-18T11:19:50.326Z,25.77
2018-06-18T11:20:50.313Z,25.57
2018-06-18T11:21:50.313Z,25.64
2018-06-18T11:22:50.335Z,25.50
2018-06-18T11:23:50.288Z,25.69
2018-06-18T11:24:50.272Z,25.77
2018-06-18T11:25:50.262Z,25.46
2018-06-18T11:26:50.398Z,25.21
2018-06-18T11:27:50.246Z,25.33
2018-06-18T11:28:50.247Z,25.75
2018-06-18T11:29:50.225Z,25.27
2018-06-18T11:30:50.216Z,24.98
2018-06-18T11:31:50.204Z,24.87
2018-06-18T11:32:50.193Z,24.62
2018-06-18T11:33:50.193Z,24.83
2018-06-18T11:34:50.201Z,24.68
2018-06-18T11:35:50.172Z,24.60
2018-06-18T11:36:50.196Z,24.22
2018-06-18T11:37:50.201Z,24.37
2018-06-18T11:38:50.222Z,24.27
2018-06-18T11:39:50.125Z,24.40
2018-06-18T11:40:50.113Z,24.47
2018-06-18T11:41:50.189Z,24.46
2018-06-18T11:42:50.098Z,24.47
2018-06-18T11:43:50.105Z,24.65
2018-06-18T11:44:50.073Z,24.76
2018-06-18T11:45:50.095Z,24.76
2018-06-18T11:46:50.057Z,24.58
2018-06-18T11:47:50.089Z,24.15
2018-06-18T11:48:50.049Z,23.97
2018-06-18T11:49:50.029Z,24.02
2018-06-18T11:50:50.062Z,23.98
2018-06-18T11:51:50.012Z,24.09
2018-06-18T11:52:49.994Z,23.93
2018-06-18T11:53:50.003Z,23.94
2018-06-18T11:54:49.974Z,23.84
2018-06-18T11:55:50.023Z,23.68
2018-06-18T11:56:49.956Z,23.60
2018-06-18T11:57:49.939Z,23.33
2018-06-18T11:58:49.948Z,23.32
2018-06-18T11:59:49.922Z,23.19
2018-06-18T12:00:49.916Z,23.05
2018-06-18T12:01:49.901Z,22.94
2018-06-18T12:02:49.886Z,22.85
2018-06-18T12:03:49.941Z,22.77
2018-06-18T12:04:49.867Z,22.83
2018-06-18T12:05:49.861Z,22.77
2018-06-18T12:06:49.848Z,22.83
2018-06-18T12:07:49.834Z,22.90
2018-06-18T12:08:49.829Z,23.10
2018-06-18T12:09:49.895Z,22.91
2018-06-18T12:10:49.801Z,22.92
2018-06-18T12:11:49.790Z,22.94
2018-06-18T12:12:49.779Z,22.85
2018-06-18T12:13:49.771Z,22.68
2018-06-18T12:14:49.765Z,22.54
2018-06-18T12:15:49.744Z,22.52
2018-06-18T12:16:49.736Z,22.42
2018-06-18T12:17:49.723Z,22.35
2018-06-18T12:18:49.710Z,22.31
2018-06-18T12:19:49.711Z,22.35
2018-06-18T12:20:49.686Z,22.40
2018-06-18T12:21:49.676Z,22.54
2018-06-18T12:22:49.662Z,22.47
2018-06-18T12:23:49.653Z,22.47
2018-06-18T12:24:49.653Z,22.57
2018-06-18T12:25:49.628Z,22.72
2018-06-18T12:26:49.618Z,22.91
2018-06-18T12:27:49.606Z,23.04
2018-06-18T12:28:49.592Z,23.09
2018-06-18T12:29:49.590Z,23.00
2018-06-18T12:30:49.572Z,22.98
2018-06-18T12:31:49.558Z,23.01
2018-06-18T12:32:49.545Z,23.09
2018-06-18T12:33:49.536Z,23.10
2018-06-18T12:34:49.535Z,22.80
2018-06-18T12:35:49.518Z,22.73
2018-06-18T12:36:49.498Z,22.70
2018-06-18T12:37:49.486Z,22.73
2018-06-18T12:38:49.479Z,22.58
2018-06-18T12:39:49.476Z,22.67
2018-06-18T12:40:49.451Z,22.68
2018-06-18T12:41:49.439Z,22.75
2018-06-18T12:42:49.427Z,22.75
2018-06-18T12:43:49.416Z,22.64
2018-06-18T12:44:49.424Z,22.64
2018-06-18T12:45:49.389Z,22.75
2018-06-18T12:46:49.437Z,22.80
2018-06-18T12:47:49.373Z,22.94
2018-06-18T12:48:49.354Z,23.04
2018-06-18T12:49:49.360Z,23.02
2018-06-18T12:50:49.331Z,23.28
2018-06-18T12:51:49.323Z,23.33
2018-06-18T12:52:49.306Z,23.33
2018-06-18T12:53:49.302Z,23.17
2018-06-18T12:54:49.293Z,23.12
2018-06-18T12:55:49.270Z,23.47
2018-06-18T12:56:49.262Z,23.28
2018-06-18T12:57:49.248Z,23.42
2018-06-18T12:58:49.237Z,23.35
2018-06-18T12:59:49.234Z,23.38
2018-06-18T13:00:49.214Z,23.15
2018-06-18T13:01:49.204Z,22.82
2018-06-18T13:02:49.190Z,22.80
2018-06-18T13:03:49.175Z,22.58
2018-06-18T13:04:49.180Z,22.40
2018-06-18T13:05:49.156Z,22.49
2018-06-18T13:06:49.152Z,22.72
2018-06-18T13:07:49.132Z,22.85
2018-06-18T13:08:49.119Z,23.10
2018-06-18T13:09:49.107Z,23.51
2018-06-18T13:10:49.107Z,23.78
2018-06-18T13:11:49.085Z,24.09
2018-06-18T13:12:49.079Z,24.15
2018-06-18T13:13:49.063Z,23.72
2018-06-18T13:14:49.050Z,23.76
2018-06-18T13:15:49.049Z,23.87
2018-06-18T13:16:49.026Z,23.78
2018-06-18T13:17:49.023Z,23.75
2018-06-18T13:18:49.003Z,23.72
2018-06-18T13:19:48.993Z,23.61
2018-06-18T13:20:48.989Z,23.28
2018-06-18T13:21:48.970Z,23.13
2018-06-18T13:22:48.958Z,22.97
2018-06-18T13:23:48.956Z,22.79
2018-06-18T13:24:48.940Z,22.67
2018-06-18T13:25:48.933Z,22.54
2018-06-18T13:26:48.912Z,22.49
2018-06-18T13:27:48.937Z,22.46
2018-06-18T13:28:48.889Z,22.42
2018-06-18T13:29:48.877Z,22.25
2018-06-18T13:30:48.875Z,22.22
2018-06-18T13:31:48.866Z,22.20
2018-06-18T13:32:48.844Z,21.94
2018-06-18T13:33:48.837Z,21.94
2018-06-18T13:34:48.817Z,21.98
2018-06-18T13:35:48.819Z,22.00
2018-06-18T13:36:48.796Z,21.98
2018-06-18T13:37:48.797Z,22.06
2018-06-18T13:38:48.767Z,22.14
2018-06-18T13:39:48.764Z,22.05
2018-06-18T13:40:48.759Z,21.86
2018-06-18T13:41:48.734Z,21.99
2018-06-18T13:42:48.725Z,22.00
2018-06-18T13:43:48.711Z,21.96
2018-06-18T13:44:48.702Z,21.99
2018-06-18T13:45:48.702Z,21.99
2018-06-18T13:46:48.673Z,21.64
2018-06-18T13:47:48.662Z,21.64
2018-06-18T13:48:48.652Z,21.64
2018-06-18T13:49:48.643Z,21.69
2018-06-18T13:50:48.628Z,21.64
2018-06-18T13:51:48.619Z,21.67
2018-06-18T13:52:48.759Z,21.68
2018-06-18T13:53:48.604Z,21.59
2018-06-18T13:54:48.575Z,21.65
2018-06-18T13:55:48.565Z,21.71
2018-06-18T13:56:48.567Z,21.68
2018-06-18T13:57:48.541Z,21.74
2018-06-18T13:58:48.527Z,21.69
2018-06-18T13:59:48.521Z,21.50
2018-06-18T14:00:48.506Z,21.62
2018-06-18T14:01:48.490Z,21.72
2018-06-18T14:02:48.489Z,21.74
2018-06-18T14:03:48.464Z,21.77
2018-06-18T14:04:48.452Z,21.65
2018-06-18T14:05:48.471Z,21.68
2018-06-18T14:06:48.427Z,21.68
2018-06-18T14:07:48.426Z,21.79
2018-06-18T14:08:48.401Z,21.98
2018-06-18T14:09:48.392Z,22.03
2018-06-18T14:10:48.379Z,22.18
2018-06-18T14:11:48.369Z,22.20
2018-06-18T14:12:48.375Z,22.55
2018-06-18T14:13:48.411Z,22.70
2018-06-18T14:14:48.334Z,23.50
2018-06-18T14:15:48.316Z,23.53
2018-06-18T14:16:48.308Z,24.21
2018-06-18T14:17:48.304Z,24.43
2018-06-18T14:18:48.280Z,24.73
2018-06-18T14:19:48.351Z,25.24
2018-06-18T14:20:48.261Z,24.96
2018-06-18T14:21:48.243Z,24.53
2018-06-18T14:22:48.231Z,24.50
2018-06-18T14:23:48.241Z,24.21
2018-06-18T14:24:48.211Z,24.20
2018-06-18T14:25:48.200Z,23.98
2018-06-18T14:26:48.189Z,24.06
2018-06-18T14:27:48.178Z,24.21
2018-06-18T14:28:48.176Z,24.27
2018-06-18T14:29:48.157Z,24.35
2018-06-18T14:30:48.146Z,24.05
2018-06-18T14:31:48.135Z,24.09
2018-06-18T14:32:48.178Z,23.94
2018-06-18T14:33:48.128Z,23.72
2018-06-18T14:34:48.102Z,23.76
2018-06-18T14:35:48.213Z,23.72
2018-06-18T14:36:48.081Z,23.47
2018-06-18T14:37:48.073Z,23.33
2018-06-18T14:38:48.070Z,23.28
2018-06-18T14:39:48.049Z,23.23
2018-06-18T14:40:48.036Z,23.13
2018-06-18T14:41:48.030Z,23.04
2018-06-18T14:42:48.019Z,22.98
2018-06-18T14:43:48.016Z,22.94
2018-06-18T14:44:47.999Z,22.92
2018-06-18T14:45:48.031Z,22.85
2018-06-18T14:46:47.969Z,22.80
2018-06-18T14:47:47.960Z,22.54
2018-06-18T14:48:48.019Z,22.58
2018-06-18T14:49:47.935Z,22.68
2018-06-18T14:50:47.928Z,22.60
2018-06-18T14:51:47.915Z,22.54
2018-06-18T14:52:47.902Z,22.55
2018-06-18T14:53:47.889Z,22.52
2018-06-18T14:54:47.889Z,22.37
2018-06-18T14:55:47.867Z,22.45
2018-06-18T14:56:47.879Z,22.28
2018-06-18T14:57:47.846Z,22.22
2018-06-18T14:58:47.832Z,22.25
2018-06-18T14:59:47.890Z,22.36
2018-06-18T15:00:47.809Z,22.42
2018-06-18T15:01:47.797Z,22.42
2018-06-18T15:02:47.861Z,22.57
2018-06-18T15:03:47.862Z,22.51
2018-06-18T15:04:47.775Z,22.47
2018-06-18T15:05:47.746Z,22.40
2018-06-18T15:06:47.740Z,22.12
2018-06-18T15:07:47.727Z,22.18
2018-06-18T15:08:47.712Z,22.14
2018-06-18T15:09:47.710Z,22.18
2018-06-18T15:10:47.697Z,22.15
2018-06-18T15:11:47.679Z,22.03
2018-06-18T15:12:47.715Z,22.14
2018-06-18T15:13:47.690Z,22.22
2018-06-18T15:14:47.648Z,22.33
2018-06-18T15:15:47.704Z,22.39
2018-06-18T15:16:47.618Z,22.45
2018-06-18T15:17:47.605Z,22.43
2018-06-18T15:18:47.593Z,22.54
2018-06-18T15:19:47.594Z,22.57
2018-06-18T15:20:47.567Z,22.58
2018-06-18T15:21:47.557Z,22.54
2018-06-18T15:22:47.552Z,22.58
2018-06-18T15:23:47.544Z,22.76
2018-06-18T15:24:47.532Z,22.85
2018-06-18T15:25:47.509Z,22.90
2018-06-18T15:26:47.591Z,23.05
2018-06-18T15:27:47.493Z,23.07
2018-06-18T15:28:47.473Z,23.27
2018-06-18T15:29:47.473Z,23.33
2018-06-18T15:30:47.448Z,23.31
2018-06-18T15:31:47.441Z,23.39
2018-06-18T15:32:47.472Z,23.40
2018-06-18T15:33:47.414Z,23.33
2018-06-18T15:34:47.416Z,23.35
2018-06-18T15:35:47.395Z,23.50
2018-06-18T15:36:47.393Z,23.51
2018-06-18T15:37:47.370Z,23.80
2018-06-18T15:38:47.360Z,23.78
2018-06-18T15:39:47.347Z,23.88
2018-06-18T15:40:47.339Z,24.25
2018-06-18T15:41:47.321Z,24.43
2018-06-18T15:42:47.310Z,24.61
2018-06-18T15:43:47.378Z,24.40
2018-06-18T15:44:47.287Z,24.52
2018-06-18T15:45:47.286Z,24.40
2018-06-18T15:46:47.270Z,24.30
2018-06-18T15:47:47.254Z,24.12
2018-06-18T15:48:47.242Z,24.12
2018-06-18T15:49:47.231Z,23.97
2018-06-18T15:50:47.231Z,23.93
2018-06-18T15:51:47.212Z,24.10
2018-06-18T15:52:47.198Z,24.12
2018-06-18T15:53:47.188Z,24.34
2018-06-18T15:54:47.181Z,24.40
2018-06-18T15:55:47.177Z,24.68
2018-06-18T15:56:47.176Z,25.02
2018-06-18T15:57:47.148Z,25.79
2018-06-18T15:58:47.134Z,25.82
2018-06-18T15:59:47.129Z,27.94
2018-06-18T16:00:47.123Z,27.84
2018-06-18T16:01:47.126Z,27.57
2018-06-18T16:02:47.093Z,28.56
2018-06-18T16:03:47.085Z,28.34
2018-06-18T16:04:47.075Z,27.90
2018-06-18T16:05:47.079Z,28.36
2018-06-18T16:06:47.056Z,30.35
2018-06-18T16:07:47.048Z,29.57
2018-06-18T16:08:47.042Z,29.52
2018-06-18T16:09:47.035Z,29.76
2018-06-18T16:10:47.042Z,30.65
2018-06-18T16:11:47.015Z,30.08
2018-06-18T16:12:47.009Z,29.42
2018-06-18T16:13:46.999Z,29.08
2018-06-18T16:14:46.993Z,29.00
2018-06-18T16:15:47.001Z,28.22
2018-06-18T16:16:46.978Z,27.29
2018-06-18T16:17:47.036Z,27.50
2018-06-18T16:18:46.962Z,27.04
2018-06-18T16:19:46.966Z,27.50
2018-06-18T16:20:46.963Z,28.40
2018-06-18T16:21:46.943Z,29.11
2018-06-18T16:22:46.937Z,28.09
2018-06-18T16:23:46.938Z,27.93
2018-06-18T16:24:46.922Z,28.86
2018-06-18T16:25:46.933Z,29.63
2018-06-18T16:26:46.910Z,28.11
2018-06-18T16:27:46.901Z,27.65
2018-06-18T16:28:46.897Z,27.72
2018-06-18T16:29:46.888Z,28.02
2018-06-18T16:30:46.896Z,27.81
2018-06-18T16:31:46.895Z,27.40
2018-06-18T16:32:46.874Z,26.76
2018-06-18T16:33:46.923Z,26.36
2018-06-18T16:34:46.858Z,26.92
2018-06-18T16:35:46.854Z,26.95
2018-06-18T16:36:46.881Z,26.52
2018-06-18T16:37:46.851Z,26.40
2018-06-18T16:38:46.833Z,26.39
2018-06-18T16:39:46.856Z,26.18
2018-06-18T16:40:46.844Z,26.26
2018-06-18T16:41:46.834Z,26.26
2018-06-18T16:42:46.806Z,25.91
2018-06-18T16:43:46.796Z,25.85
2018-06-18T16:44:46.788Z,25.58
2018-06-18T16:45:46.782Z,25.38
2018-06-18T16:46:46.773Z,25.46
2018-06-18T16:47:46.785Z,25.77
2018-06-18T16:48:46.759Z,26.02
2018-06-18T16:49:46.750Z,26.35
2018-06-18T16:50:46.743Z,26.18
2018-06-18T16:51:46.748Z,25.80
2018-06-18T16:52:46.726Z,25.40
2018-06-18T16:53:46.719Z,25.60
2018-06-18T16:54:46.720Z,25.76
2018-06-18T16:55:46.704Z,26.12
2018-06-18T16:56:46.692Z,26.10
2018-06-18T16:57:46.698Z,25.79
2018-06-18T16:58:46.679Z,25.40
2018-06-18T16:59:46.672Z,25.42
2018-06-18T17:00:46.668Z,25.69
2018-06-18T17:01:46.649Z,25.28
2018-06-18T17:02:46.681Z,25.33
2018-06-18T17:03:46.634Z,25.10
2018-06-18T17:04:46.630Z,25.32
2018-06-18T17:05:46.621Z,25.50
2018-06-18T17:06:46.609Z,26.54
2018-06-18T17:07:46.615Z,26.63
2018-06-18T17:08:46.595Z,25.83
2018-06-18T17:09:46.581Z,25.61
2018-06-18T17:10:46.579Z,25.32
2018-06-18T17:11:46.575Z,25.33
2018-06-18T17:12:46.571Z,26.60
2018-06-18T17:13:46.554Z,26.28
2018-06-18T17:14:46.545Z,27.34
2018-06-18T17:15:46.535Z,28.66
2018-06-18T17:16:46.526Z,29.55
2018-06-18T17:17:46.535Z,29.87
2018-06-18T17:18:46.511Z,28.62
2018-06-18T17:19:46.512Z,29.24
2018-06-18T17:20:46.503Z,29.85
2018-06-18T17:21:46.493Z,30.37
2018-06-18T17:22:46.497Z,30.84
2018-06-18T17:23:46.476Z,30.89
2018-06-18T17:24:46.476Z,29.36
2018-06-18T17:25:46.466Z,30.22
2018-06-18T17:26:46.454Z,30.51
2018-06-18T17:27:46.477Z,31.47
2018-06-18T17:28:46.532Z,32.30
2018-06-18T17:29:46.446Z,32.79
2018-06-18T17:30:46.440Z,31.20
2018-06-18T17:31:46.478Z,30.55
2018-06-18T17:32:46.453Z,29.12
2018-06-18T17:33:46.447Z,28.06
2018-06-18T17:34:46.422Z,26.87
2018-06-18T17:35:46.418Z,26.75
2018-06-18T17:36:46.413Z,27.84
2018-06-18T17:37:46.436Z,27.21
2018-06-18T17:38:46.403Z,26.17
2018-06-18T17:39:46.398Z,25.10
2018-06-18T17:40:46.391Z,24.84
2018-06-18T17:41:46.399Z,24.57
2018-06-18T17:42:46.392Z,24.13
2018-06-18T17:43:46.375Z,24.03
2018-06-18T17:44:46.373Z,23.85
2018-06-18T17:45:46.359Z,23.87
2018-06-18T17:46:46.352Z,23.72
2018-06-18T17:47:46.363Z,24.52
2018-06-18T17:48:46.341Z,24.45
2018-06-18T17:49:46.380Z,24.53
2018-06-18T17:50:46.325Z,24.13
2018-06-18T17:51:46.315Z,24.03
2018-06-18T17:52:46.327Z,23.70
2018-06-18T17:53:46.340Z,23.90
2018-06-18T17:54:46.295Z,23.93
2018-06-18T17:55:46.284Z,24.00
2018-06-18T17:56:46.273Z,23.95
2018-06-18T17:57:46.277Z,23.97
2018-06-18T17:58:46.255Z,23.58
2018-06-18T17:59:46.247Z,23.61
2018-06-18T18:00:46.238Z,23.55
2018-06-18T18:01:46.230Z,23.38
2018-06-18T18:02:46.253Z,23.47
2018-06-18T18:03:46.210Z,23.75
2018-06-18T18:04:46.200Z,23.83
2018-06-18T18:05:46.201Z,23.53
2018-06-18T18:06:46.180Z,23.51
2018-06-18T18:07:46.196Z,23.61
2018-06-18T18:08:46.164Z,23.48
2018-06-18T18:09:46.152Z,23.40
2018-06-18T18:10:46.145Z,23.72
2018-06-18T18:11:46.135Z,23.90
2018-06-18T18:12:46.194Z,23.88
2018-06-18T18:13:46.159Z,23.55
2018-06-18T18:14:46.104Z,23.57
2018-06-18T18:15:46.092Z,23.61
2018-06-18T18:16:46.083Z,23.61
2018-06-18T18:17:46.087Z,23.51
2018-06-18T18:18:46.066Z,23.48
2018-06-18T18:19:46.057Z,23.31
2018-06-18T18:20:46.038Z,23.16
2018-06-18T18:21:46.031Z,23.05
2018-06-18T18:22:46.034Z,22.92
2018-06-18T18:23:46.009Z,22.88
2018-06-18T18:24:45.993Z,22.86
2018-06-18T18:25:45.986Z,22.80
2018-06-18T18:26:45.977Z,22.75
2018-06-18T18:27:46.106Z,22.73
2018-06-18T18:28:45.976Z,22.68
2018-06-18T18:29:45.967Z,22.57
2018-06-18T18:30:45.937Z,22.73
2018-06-18T18:31:45.926Z,22.61
2018-06-18T18:32:45.924Z,22.54
2018-06-18T18:33:45.914Z,22.58
2018-06-18T18:34:45.899Z,22.57
2018-06-18T18:35:45.876Z,22.57
2018-06-18T18:36:45.863Z,22.61
2018-06-18T18:37:45.864Z,22.58
2018-06-18T18:38:45.840Z,22.54
2018-06-18T18:39:45.829Z,22.60
2018-06-18T18:40:45.819Z,22.61
2018-06-18T18:41:45.811Z,22.55
2018-06-18T18:42:45.806Z,22.61
2018-06-18T18:43:45.786Z,22.52
2018-06-18T18:44:45.772Z,22.43
2018-06-18T18:45:45.764Z,22.57
2018-06-18T18:46:45.752Z,22.46
2018-06-18T18:47:45.750Z,22.42
2018-06-18T18:48:45.728Z,22.42
2018-06-18T18:49:45.716Z,22.47
2018-06-18T18:50:45.700Z,22.37
2018-06-18T18:51:45.697Z,22.45
2018-06-18T18:52:45.695Z,22.39
2018-06-18T18:53:45.675Z,22.40
2018-06-18T18:54:45.652Z,22.37
2018-06-18T18:55:45.637Z,22.36
2018-06-18T18:56:45.633Z,22.33
2018-06-18T18:57:45.632Z,22.36
2018-06-18T18:58:45.610Z,22.31
2018-06-18T18:59:45.591Z,22.31
2018-06-18T19:00:45.580Z,22.30
2018-06-18T19:01:45.568Z,22.27
2018-06-18T19:02:45.557Z,22.25
2018-06-18T19:03:45.566Z,22.24
2018-06-18T19:04:45.536Z,22.24
2018-06-18T19:05:45.519Z,22.25
2018-06-18T19:06:45.504Z,22.17
2018-06-18T19:07:45.497Z,22.09
2018-06-18T19:08:45.482Z,22.18
2018-06-18T19:09:45.538Z,22.21
2018-06-18T19:10:45.458Z,22.24
2018-06-18T19:11:45.458Z,22.24
2018-06-18T19:12:45.432Z,22.24
2018-06-18T19:13:45.421Z,22.21
2018-06-18T19:14:45.422Z,22.17
2018-06-18T19:15:45.398Z,22.06
2018-06-18T19:16:45.394Z,22.02
2018-06-18T19:17:45.383Z,22.00
2018-06-18T19:18:45.364Z,22.02
2018-06-18T19:19:45.360Z,21.91
2018-06-18T19:20:45.335Z,21.91
2018-06-18T19:21:45.368Z,21.92
2018-06-18T19:22:45.327Z,21.79
2018-06-18T19:23:45.303Z,21.68
2018-06-18T19:24:45.294Z,21.62
2018-06-18T19:25:45.283Z,21.62
2018-06-18T19:26:45.258Z,21.61
2018-06-18T19:27:45.256Z,21.54
2018-06-18T19:28:45.235Z,21.61
2018-06-18T19:29:45.249Z,21.62
2018-06-18T19:30:45.225Z,21.62
2018-06-18T19:31:45.200Z,21.61
2018-06-18T19:32:45.191Z,21.69
2018-06-18T19:33:45.180Z,21.72
2018-06-18T19:34:45.176Z,21.68
2018-06-18T19:35:45.147Z,21.79
2018-06-18T19:36:45.248Z,21.82
2018-06-18T19:37:45.122Z,21.77
2018-06-18T19:38:45.109Z,21.75
2018-06-18T19:39:45.113Z,21.72
2018-06-18T19:40:45.084Z,21.68
2018-06-18T19:41:45.068Z,21.69
2018-06-18T19:42:45.062Z,21.68
2018-06-18T19:43:45.046Z,21.61
2018-06-18T19:44:45.046Z,21.52
2018-06-18T19:45:45.023Z,21.53
2018-06-18T19:46:45.004Z,21.52
2018-06-18T19:47:44.993Z,21.52
2018-06-18T19:48:44.980Z,21.43
2018-06-18T19:49:44.986Z,21.42
2018-06-18T19:50:45.007Z,21.40
2018-06-18T19:51:44.943Z,21.28
2018-06-18T19:52:44.931Z,21.25
2018-06-18T19:53:44.914Z,21.24
2018-06-18T19:54:44.906Z,21.24
2018-06-18T19:55:44.903Z,21.29
2018-06-18T19:56:44.881Z,21.21
2018-06-18T19:57:44.866Z,21.27
2018-06-18T19:58:44.851Z,21.16
2018-06-18T19:59:44.840Z,21.21
2018-06-18T20:00:44.836Z,21.27
2018-06-18T20:01:44.883Z,21.19
2018-06-18T20:02:44.802Z,21.16
2018-06-18T20:03:44.787Z,21.10
2018-06-18T20:04:44.784Z,21.09
2018-06-18T20:05:44.785Z,21.09
2018-06-18T20:06:44.748Z,21.07
2018-06-18T20:07:44.742Z,20.99
2018-06-18T20:08:44.730Z,20.99
2018-06-18T20:09:44.706Z,21.06
2018-06-18T20:10:44.704Z,21.09
2018-06-18T20:11:44.684Z,21.06
2018-06-18T20:12:44.672Z,21.07
2018-06-18T20:13:44.654Z,21.13
2018-06-18T20:14:44.641Z,21.03
2018-06-18T20:15:44.637Z,21.03
2018-06-18T20:16:44.623Z,21.04
2018-06-18T20:17:44.615Z,21.03
2018-06-18T20:18:44.588Z,20.94
2018-06-18T20:19:44.578Z,21.01
2018-06-18T20:20:44.570Z,20.97
2018-06-18T20:21:44.551Z,20.99
2018-06-18T20:22:44.533Z,21.04
2018-06-18T20:23:44.521Z,20.99
2018-06-18T20:24:44.511Z,21.03
2018-06-18T20:25:44.580Z,20.98
2018-06-18T20:26:44.481Z,20.98
2018-06-18T20:27:44.493Z,20.95
2018-06-18T20:28:44.451Z,20.92
2018-06-18T20:29:44.448Z,20.94
2018-06-18T20:30:44.439Z,20.99
2018-06-18T20:31:44.412Z,20.99
2018-06-18T20:32:44.404Z,21.04
2018-06-18T20:33:44.385Z,20.95
2018-06-18T20:34:44.374Z,20.97
2018-06-18T20:35:44.372Z,20.80
2018-06-18T20:36:44.348Z,20.73
2018-06-18T20:37:44.362Z,20.76
2018-06-18T20:38:44.318Z,20.72
2018-06-18T20:39:44.305Z,20.59
2018-06-18T20:40:44.312Z,20.66
2018-06-18T20:41:44.283Z,20.58
2018-06-18T20:42:44.266Z,20.52
2018-06-18T20:43:44.254Z,20.57
2018-06-18T20:44:44.237Z,20.66
2018-06-18T20:45:44.234Z,20.54
2018-06-18T20:46:44.211Z,20.67
2018-06-18T20:47:44.197Z,20.57
2018-06-18T20:48:44.181Z,20.69
2018-06-18T20:49:44.179Z,20.59
2018-06-18T20:50:44.232Z,20.74
2018-06-18T20:51:44.142Z,20.72
2018-06-18T20:52:44.128Z,20.79
2018-06-18T20:53:44.119Z,20.69
2018-06-18T20:54:44.102Z,20.72
2018-06-18T20:55:44.655Z,20.73
2018-06-18T20:56:44.075Z,20.72
2018-06-18T20:57:44.069Z,20.72
2018-06-18T20:58:44.049Z,20.76
2018-06-18T20:59:44.034Z,20.73
2018-06-18T21:00:44.034Z,20.72
2018-06-18T21:01:44.012Z,20.72
2018-06-18T21:02:44.069Z,20.73
2018-06-18T21:03:43.992Z,20.67
2018-06-18T21:04:43.965Z,20.73
2018-06-18T21:05:43.965Z,20.70
2018-06-18T21:06:43.961Z,20.67
2018-06-18T21:07:43.979Z,20.70
2018-06-18T21:08:43.914Z,20.62
2018-06-18T21:09:43.898Z,20.59
2018-06-18T21:10:43.901Z,20.61
2018-06-18T21:11:43.869Z,20.67
2018-06-18T21:12:43.855Z,20.64
2018-06-18T21:13:43.845Z,20.62
2018-06-18T21:14:43.830Z,20.69
2018-06-18T21:15:43.826Z,20.55
2018-06-18T21:16:43.802Z,20.59
2018-06-18T21:17:43.787Z,20.58
2018-06-18T21:18:43.775Z,20.66
2018-06-18T21:19:43.760Z,20.54
2018-06-18T21:20:43.759Z,20.62
2018-06-18T21:21:43.734Z,20.57
2018-06-18T21:22:43.723Z,20.52
2018-06-18T21:23:43.707Z,20.57
2018-06-18T21:24:43.696Z,20.54
2018-06-18T21:25:43.679Z,20.51
2018-06-18T21:26:43.680Z,20.54
2018-06-18T21:27:43.654Z,20.54
2018-06-18T21:28:43.641Z,20.54
2018-06-18T21:29:43.625Z,20.58
2018-06-18T21:30:43.610Z,20.54
2018-06-18T21:31:43.607Z,20.58
2018-06-18T21:32:43.584Z,20.61
2018-06-18T21:33:43.570Z,20.48
2018-06-18T21:34:43.559Z,20.42
2018-06-18T21:35:43.545Z,20.57
2018-06-18T21:36:43.539Z,20.48
2018-06-18T21:37:43.514Z,20.42
2018-06-18T21:38:43.502Z,20.39
2018-06-18T21:39:43.492Z,20.29
2018-06-18T21:40:43.472Z,20.38
2018-06-18T21:41:43.469Z,20.32
2018-06-18T21:42:43.445Z,20.31
2018-06-18T21:43:43.428Z,20.36
2018-06-18T21:44:43.417Z,20.29
2018-06-18T21:45:43.404Z,20.24
2018-06-18T21:46:43.404Z,20.38
2018-06-18T21:47:43.373Z,20.32
2018-06-18T21:48:43.365Z,20.36
2018-06-18T21:49:43.348Z,20.39
2018-06-18T21:50:43.334Z,20.28
2018-06-18T21:51:43.330Z,20.24
2018-06-18T21:52:43.305Z,20.28
2018-06-18T21:53:43.295Z,20.31
2018-06-18T21:54:43.286Z,20.18
2018-06-18T21:55:43.263Z,20.16
2018-06-18T21:56:43.270Z,20.21
2018-06-18T21:57:43.241Z,20.29
2018-06-18T21:58:43.229Z,20.28
2018-06-18T21:59:43.209Z,20.31
2018-06-18T22:00:43.233Z,20.26
2018-06-18T22:01:43.197Z,20.23
2018-06-18T22:02:43.169Z,20.16
2018-06-18T22:03:43.154Z,20.08
2018-06-18T22:04:43.140Z,20.14
2018-06-18T22:05:43.127Z,20.11